sensor_id;sensor_type;location;lat;lon;timestamp;P1;durP1;ratioP1;P2;durP2;ratioP2
16015;SDS011;8112;53.592;10.184;2023-05-19T00:03:49;7.03;;;4.53;;
16015;SDS011;8112;53.592;10.184;2023-05-19T00:08:54;8.47;;;4.20;;
16015;SDS011;8112;53.592;10.184;2023-05-19T00:13:59;10.07;;;4.90;;
16015;SDS011;8112;53.592;10.184;2023-05-19T00:19:02;8.43;;;4.30;;
16015;SDS011;8112;53.592;10.184;2023-05-19T00:24:05;5.90;;;4.03;;
16015;SDS011;8112;53.592;10.184;2023-05-19T00:29:08;10.50;;;4.60;;
16015;SDS011;8112;53.592;10.184;2023-05-19T00:34:10;6.17;;;4.30;;
16015;SDS011;8112;53.592;10.184;2023-05-19T00:39:12;7.00;;;4.00;;
16015;SDS011;8112;53.592;10.184;2023-05-19T00:44:15;7.70;;;4.87;;
16015;SDS011;8112;53.592;10.184;2023-05-19T00:49:16;5.97;;;3.63;;
16015;SDS011;8112;53.592;10.184;2023-05-19T00:54:18;6.77;;;4.97;;
16015;SDS011;8112;53.592;10.184;2023-05-19T00:59:22;4.93;;;4.27;;
16015;SDS011;8112;53.592;10.184;2023-05-19T01:04:24;8.90;;;4.33;;
16015;SDS011;8112;53.592;10.184;2023-05-19T01:09:26;6.23;;;4.00;;
16015;SDS011;8112;53.592;10.184;2023-05-19T01:14:29;4.90;;;4.23;;
16015;SDS011;8112;53.592;10.184;2023-05-19T01:19:35;5.80;;;4.00;;
16015;SDS011;8112;53.592;10.184;2023-05-19T01:30:33;5.93;;;4.20;;
16015;SDS011;8112;53.592;10.184;2023-05-19T01:35:40;7.70;;;4.30;;
16015;SDS011;8112;53.592;10.184;2023-05-19T01:40:44;5.37;;;4.80;;
16015;SDS011;8112;53.592;10.184;2023-05-19T01:45:48;6.07;;;4.10;;
16015;SDS011;8112;53.592;10.184;2023-05-19T01:50:51;7.03;;;4.63;;
16015;SDS011;8112;53.592;10.184;2023-05-19T01:55:56;6.70;;;4.33;;
16015;SDS011;8112;53.592;10.184;2023-05-19T02:01:01;6.37;;;4.00;;
16015;SDS011;8112;53.592;10.184;2023-05-19T02:06:11;6.73;;;4.50;;
16015;SDS011;8112;53.592;10.184;2023-05-19T02:11:24;7.13;;;4.37;;
16015;SDS011;8112;53.592;10.184;2023-05-19T02:16:35;7.13;;;4.40;;
16015;SDS011;8112;53.592;10.184;2023-05-19T02:21:38;7.83;;;4.83;;
16015;SDS011;8112;53.592;10.184;2023-05-19T02:26:40;6.43;;;4.70;;
16015;SDS011;8112;53.592;10.184;2023-05-19T02:31:43;7.13;;;4.43;;
16015;SDS011;8112;53.592;10.184;2023-05-19T02:36:45;6.53;;;4.90;;
16015;SDS011;8112;53.592;10.184;2023-05-19T02:41:48;8.97;;;4.93;;
16015;SDS011;8112;53.592;10.184;2023-05-19T02:46:52;9.07;;;4.70;;
16015;SDS011;8112;53.592;10.184;2023-05-19T02:51:54;5.87;;;4.30;;
16015;SDS011;8112;53.592;10.184;2023-05-19T02:56:56;7.47;;;4.50;;
16015;SDS011;8112;53.592;10.184;2023-05-19T03:02:00;7.10;;;4.73;;
16015;SDS011;8112;53.592;10.184;2023-05-19T03:07:03;7.63;;;4.53;;
16015;SDS011;8112;53.592;10.184;2023-05-19T03:12:05;8.97;;;5.00;;
16015;SDS011;8112;53.592;10.184;2023-05-19T03:17:08;7.43;;;4.40;;
16015;SDS011;8112;53.592;10.184;2023-05-19T03:22:11;11.80;;;5.03;;
16015;SDS011;8112;53.592;10.184;2023-05-19T03:27:12;9.37;;;4.97;;
16015;SDS011;8112;53.592;10.184;2023-05-19T03:32:18;7.13;;;4.97;;
16015;SDS011;8112;53.592;10.184;2023-05-19T03:37:20;9.73;;;5.10;;
16015;SDS011;8112;53.592;10.184;2023-05-19T03:42:22;9.90;;;5.00;;
16015;SDS011;8112;53.592;10.184;2023-05-19T03:47:25;8.27;;;4.50;;
16015;SDS011;8112;53.592;10.184;2023-05-19T03:52:56;7.37;;;5.07;;
16015;SDS011;8112;53.592;10.184;2023-05-19T03:58:03;8.70;;;5.13;;
16015;SDS011;8112;53.592;10.184;2023-05-19T04:03:06;8.03;;;5.10;;
16015;SDS011;8112;53.592;10.184;2023-05-19T04:08:08;8.40;;;4.10;;
16015;SDS011;8112;53.592;10.184;2023-05-19T04:13:10;8.30;;;4.50;;
16015;SDS011;8112;53.592;10.184;2023-05-19T04:18:13;9.67;;;5.10;;
16015;SDS011;8112;53.592;10.184;2023-05-19T04:23:14;6.50;;;4.50;;
16015;SDS011;8112;53.592;10.184;2023-05-19T04:28:17;8.80;;;4.60;;
16015;SDS011;8112;53.592;10.184;2023-05-19T04:33:20;7.93;;;4.60;;
16015;SDS011;8112;53.592;10.184;2023-05-19T04:38:22;9.00;;;4.53;;
16015;SDS011;8112;53.592;10.184;2023-05-19T04:43:23;6.23;;;3.83;;
16015;SDS011;8112;53.592;10.184;2023-05-19T04:48:28;8.60;;;4.00;;
16015;SDS011;8112;53.592;10.184;2023-05-19T04:53:30;8.70;;;4.30;;
16015;SDS011;8112;53.592;10.184;2023-05-19T04:58:32;7.53;;;3.93;;
16015;SDS011;8112;53.592;10.184;2023-05-19T05:03:36;6.93;;;3.83;;
16015;SDS011;8112;53.592;10.184;2023-05-19T05:08:38;8.83;;;4.20;;
16015;SDS011;8112;53.592;10.184;2023-05-19T05:13:40;10.40;;;4.10;;
16015;SDS011;8112;53.592;10.184;2023-05-19T05:18:45;7.30;;;3.70;;
16015;SDS011;8112;53.592;10.184;2023-05-19T05:23:48;10.73;;;4.53;;
16015;SDS011;8112;53.592;10.184;2023-05-19T05:28:51;7.33;;;3.67;;
16015;SDS011;8112;53.592;10.184;2023-05-19T05:33:54;8.10;;;3.70;;
16015;SDS011;8112;53.592;10.184;2023-05-19T05:39:00;7.27;;;3.67;;
16015;SDS011;8112;53.592;10.184;2023-05-19T05:44:03;9.97;;;3.87;;
16015;SDS011;8112;53.592;10.184;2023-05-19T05:49:07;10.30;;;3.93;;
16015;SDS011;8112;53.592;10.184;2023-05-19T05:54:12;9.20;;;3.80;;
16015;SDS011;8112;53.592;10.184;2023-05-19T05:59:19;10.03;;;3.93;;
16015;SDS011;8112;53.592;10.184;2023-05-19T06:04:22;8.97;;;4.20;;
16015;SDS011;8112;53.592;10.184;2023-05-19T06:09:24;7.77;;;3.60;;
16015;SDS011;8112;53.592;10.184;2023-05-19T06:14:26;11.93;;;3.80;;
16015;SDS011;8112;53.592;10.184;2023-05-19T06:19:49;10.20;;;3.57;;
16015;SDS011;8112;53.592;10.184;2023-05-19T06:24:51;12.23;;;3.60;;
16015;SDS011;8112;53.592;10.184;2023-05-19T06:29:53;6.70;;;3.83;;
16015;SDS011;8112;53.592;10.184;2023-05-19T06:34:57;7.13;;;3.60;;
16015;SDS011;8112;53.592;10.184;2023-05-19T06:39:59;8.93;;;3.83;;
16015;SDS011;8112;53.592;10.184;2023-05-19T06:45:01;6.33;;;3.00;;
16015;SDS011;8112;53.592;10.184;2023-05-19T06:50:04;9.13;;;3.80;;
16015;SDS011;8112;53.592;10.184;2023-05-19T06:55:09;5.07;;;3.57;;
16015;SDS011;8112;53.592;10.184;2023-05-19T07:00:12;9.57;;;3.63;;
16015;SDS011;8112;53.592;10.184;2023-05-19T07:05:20;7.63;;;3.30;;
16015;SDS011;8112;53.592;10.184;2023-05-19T07:10:26;7.60;;;2.87;;
16015;SDS011;8112;53.592;10.184;2023-05-19T07:15:29;6.87;;;2.57;;
16015;SDS011;8112;53.592;10.184;2023-05-19T07:20:33;7.23;;;2.80;;
16015;SDS011;8112;53.592;10.184;2023-05-19T07:25:35;6.23;;;2.70;;
16015;SDS011;8112;53.592;10.184;2023-05-19T07:30:37;7.50;;;2.87;;
16015;SDS011;8112;53.592;10.184;2023-05-19T07:35:40;6.67;;;2.77;;
16015;SDS011;8112;53.592;10.184;2023-05-19T07:40:43;7.27;;;2.53;;
16015;SDS011;8112;53.592;10.184;2023-05-19T07:45:45;4.80;;;2.50;;
16015;SDS011;8112;53.592;10.184;2023-05-19T07:50:48;7.60;;;2.30;;
16015;SDS011;8112;53.592;10.184;2023-05-19T07:55:50;6.90;;;2.80;;
16015;SDS011;8112;53.592;10.184;2023-05-19T08:00:51;7.83;;;2.30;;
16015;SDS011;8112;53.592;10.184;2023-05-19T08:05:55;6.30;;;2.40;;
16015;SDS011;8112;53.592;10.184;2023-05-19T08:10:56;4.20;;;2.10;;
16015;SDS011;8112;53.592;10.184;2023-05-19T08:15:58;7.47;;;2.30;;
16015;SDS011;8112;53.592;10.184;2023-05-19T08:21:01;9.57;;;2.53;;
16015;SDS011;8112;53.592;10.184;2023-05-19T08:26:03;6.63;;;2.47;;
16015;SDS011;8112;53.592;10.184;2023-05-19T08:31:05;6.00;;;2.70;;
16015;SDS011;8112;53.592;10.184;2023-05-19T08:36:08;5.50;;;2.30;;
16015;SDS011;8112;53.592;10.184;2023-05-19T08:41:09;7.10;;;2.37;;
16015;SDS011;8112;53.592;10.184;2023-05-19T08:46:12;8.83;;;2.70;;
16015;SDS011;8112;53.592;10.184;2023-05-19T08:51:19;9.53;;;2.77;;
16015;SDS011;8112;53.592;10.184;2023-05-19T08:56:27;9.03;;;2.60;;
16015;SDS011;8112;53.592;10.184;2023-05-19T09:01:31;6.43;;;2.30;;
16015;SDS011;8112;53.592;10.184;2023-05-19T09:06:34;6.40;;;2.10;;
16015;SDS011;8112;53.592;10.184;2023-05-19T09:11:40;5.03;;;2.30;;
16015;SDS011;8112;53.592;10.184;2023-05-19T09:16:45;5.70;;;2.33;;
16015;SDS011;8112;53.592;10.184;2023-05-19T09:21:57;5.03;;;2.07;;
16015;SDS011;8112;53.592;10.184;2023-05-19T09:27:00;5.93;;;1.97;;
16015;SDS011;8112;53.592;10.184;2023-05-19T09:32:02;4.20;;;2.10;;
16015;SDS011;8112;53.592;10.184;2023-05-19T09:37:05;6.90;;;2.30;;
16015;SDS011;8112;53.592;10.184;2023-05-19T09:42:07;4.30;;;2.03;;
16015;SDS011;8112;53.592;10.184;2023-05-19T09:47:08;8.97;;;2.33;;
16015;SDS011;8112;53.592;10.184;2023-05-19T09:52:13;8.27;;;2.17;;
16015;SDS011;8112;53.592;10.184;2023-05-19T09:57:16;9.20;;;2.13;;
16015;SDS011;8112;53.592;10.184;2023-05-19T10:02:17;5.67;;;2.30;;
16015;SDS011;8112;53.592;10.184;2023-05-19T10:07:22;6.90;;;2.50;;
16015;SDS011;8112;53.592;10.184;2023-05-19T10:12:24;6.90;;;2.63;;
16015;SDS011;8112;53.592;10.184;2023-05-19T10:17:27;5.57;;;2.00;;
16015;SDS011;8112;53.592;10.184;2023-05-19T10:22:30;6.73;;;2.00;;
16015;SDS011;8112;53.592;10.184;2023-05-19T10:27:33;4.13;;;1.70;;
16015;SDS011;8112;53.592;10.184;2023-05-19T10:32:36;5.37;;;1.60;;
16015;SDS011;8112;53.592;10.184;2023-05-19T10:37:43;7.00;;;2.07;;
16015;SDS011;8112;53.592;10.184;2023-05-19T10:42:52;4.53;;;1.80;;
16015;SDS011;8112;53.592;10.184;2023-05-19T10:48:12;7.70;;;1.70;;
16015;SDS011;8112;53.592;10.184;2023-05-19T10:53:16;6.37;;;2.10;;
16015;SDS011;8112;53.592;10.184;2023-05-19T10:58:35;5.73;;;2.13;;
16015;SDS011;8112;53.592;10.184;2023-05-19T11:03:44;8.50;;;1.63;;
16015;SDS011;8112;53.592;10.184;2023-05-19T11:08:52;4.37;;;1.80;;
16015;SDS011;8112;53.592;10.184;2023-05-19T11:13:55;6.07;;;2.03;;
16015;SDS011;8112;53.592;10.184;2023-05-19T11:19:00;4.03;;;1.93;;
16015;SDS011;8112;53.592;10.184;2023-05-19T11:24:03;5.60;;;1.63;;
16015;SDS011;8112;53.592;10.184;2023-05-19T11:29:08;5.43;;;1.70;;
16015;SDS011;8112;53.592;10.184;2023-05-19T11:34:10;6.63;;;1.70;;
16015;SDS011;8112;53.592;10.184;2023-05-19T11:39:14;5.20;;;1.60;;
16015;SDS011;8112;53.592;10.184;2023-05-19T11:44:17;7.63;;;1.83;;
16015;SDS011;8112;53.592;10.184;2023-05-19T11:49:18;4.13;;;1.67;;
16015;SDS011;8112;53.592;10.184;2023-05-19T11:54:27;5.23;;;1.87;;
16015;SDS011;8112;53.592;10.184;2023-05-19T11:59:31;5.07;;;1.97;;
16015;SDS011;8112;53.592;10.184;2023-05-19T12:04:33;5.53;;;2.03;;
16015;SDS011;8112;53.592;10.184;2023-05-19T12:09:37;4.33;;;1.80;;
16015;SDS011;8112;53.592;10.184;2023-05-19T12:14:39;5.73;;;2.17;;
16015;SDS011;8112;53.592;10.184;2023-05-19T12:19:41;8.60;;;1.77;;
16015;SDS011;8112;53.592;10.184;2023-05-19T12:24:45;5.40;;;1.73;;
16015;SDS011;8112;53.592;10.184;2023-05-19T12:29:48;5.10;;;1.83;;
16015;SDS011;8112;53.592;10.184;2023-05-19T12:34:51;3.77;;;1.57;;
16015;SDS011;8112;53.592;10.184;2023-05-19T12:39:55;2.90;;;1.80;;
16015;SDS011;8112;53.592;10.184;2023-05-19T12:44:58;6.23;;;2.00;;
16015;SDS011;8112;53.592;10.184;2023-05-19T12:50:01;3.17;;;1.60;;
16015;SDS011;8112;53.592;10.184;2023-05-19T12:55:05;4.67;;;1.83;;
16015;SDS011;8112;53.592;10.184;2023-05-19T13:00:12;5.77;;;1.60;;
16015;SDS011;8112;53.592;10.184;2023-05-19T13:05:16;4.83;;;1.57;;
16015;SDS011;8112;53.592;10.184;2023-05-19T13:10:19;5.13;;;1.93;;
16015;SDS011;8112;53.592;10.184;2023-05-19T13:15:21;3.60;;;1.77;;
16015;SDS011;8112;53.592;10.184;2023-05-19T13:20:23;4.30;;;1.60;;
16015;SDS011;8112;53.592;10.184;2023-05-19T13:25:26;6.23;;;1.90;;
16015;SDS011;8112;53.592;10.184;2023-05-19T13:30:28;4.40;;;1.67;;
16015;SDS011;8112;53.592;10.184;2023-05-19T13:35:30;3.63;;;1.80;;
16015;SDS011;8112;53.592;10.184;2023-05-19T13:40:37;4.67;;;1.40;;
16015;SDS011;8112;53.592;10.184;2023-05-19T13:45:39;4.93;;;1.70;;
16015;SDS011;8112;53.592;10.184;2023-05-19T13:50:41;6.43;;;1.63;;
16015;SDS011;8112;53.592;10.184;2023-05-19T13:55:44;8.00;;;2.03;;
16015;SDS011;8112;53.592;10.184;2023-05-19T14:00:46;2.80;;;1.80;;
16015;SDS011;8112;53.592;10.184;2023-05-19T14:05:50;5.83;;;1.67;;
16015;SDS011;8112;53.592;10.184;2023-05-19T14:10:53;4.77;;;1.70;;
16015;SDS011;8112;53.592;10.184;2023-05-19T14:15:55;4.23;;;1.67;;
16015;SDS011;8112;53.592;10.184;2023-05-19T14:20:56;3.10;;;1.93;;
16015;SDS011;8112;53.592;10.184;2023-05-19T14:25:59;5.60;;;1.30;;
16015;SDS011;8112;53.592;10.184;2023-05-19T14:31:01;4.20;;;1.80;;
16015;SDS011;8112;53.592;10.184;2023-05-19T14:36:03;7.77;;;1.60;;
16015;SDS011;8112;53.592;10.184;2023-05-19T14:41:07;6.60;;;1.90;;
16015;SDS011;8112;53.592;10.184;2023-05-19T14:46:08;6.03;;;1.80;;
16015;SDS011;8112;53.592;10.184;2023-05-19T14:51:10;6.57;;;2.10;;
16015;SDS011;8112;53.592;10.184;2023-05-19T14:56:13;4.97;;;1.67;;
16015;SDS011;8112;53.592;10.184;2023-05-19T15:01:15;4.83;;;1.50;;
16015;SDS011;8112;53.592;10.184;2023-05-19T15:06:16;7.40;;;1.80;;
16015;SDS011;8112;53.592;10.184;2023-05-19T15:11:20;3.97;;;1.47;;
16015;SDS011;8112;53.592;10.184;2023-05-19T15:16:21;5.10;;;1.50;;
16015;SDS011;8112;53.592;10.184;2023-05-19T15:21:23;4.20;;;1.80;;
16015;SDS011;8112;53.592;10.184;2023-05-19T15:26:26;5.30;;;1.90;;
16015;SDS011;8112;53.592;10.184;2023-05-19T15:31:28;6.23;;;1.73;;
16015;SDS011;8112;53.592;10.184;2023-05-19T15:36:30;3.63;;;1.50;;
16015;SDS011;8112;53.592;10.184;2023-05-19T15:41:33;5.50;;;1.80;;
16015;SDS011;8112;53.592;10.184;2023-05-19T15:46:35;4.83;;;1.60;;
16015;SDS011;8112;53.592;10.184;2023-05-19T15:51:36;6.00;;;1.63;;
16015;SDS011;8112;53.592;10.184;2023-05-19T15:56:39;7.03;;;1.80;;
16015;SDS011;8112;53.592;10.184;2023-05-19T16:01:41;4.37;;;1.67;;
16015;SDS011;8112;53.592;10.184;2023-05-19T16:06:43;4.13;;;1.63;;
16015;SDS011;8112;53.592;10.184;2023-05-19T16:11:46;3.87;;;1.47;;
16015;SDS011;8112;53.592;10.184;2023-05-19T16:16:49;4.17;;;1.20;;
16015;SDS011;8112;53.592;10.184;2023-05-19T16:21:51;6.30;;;1.43;;
16015;SDS011;8112;53.592;10.184;2023-05-19T16:26:54;4.10;;;1.03;;
16015;SDS011;8112;53.592;10.184;2023-05-19T16:31:56;4.97;;;1.57;;
16015;SDS011;8112;53.592;10.184;2023-05-19T16:36:58;7.27;;;1.37;;
16015;SDS011;8112;53.592;10.184;2023-05-19T16:42:01;5.37;;;1.70;;
16015;SDS011;8112;53.592;10.184;2023-05-19T16:47:03;7.93;;;1.60;;
16015;SDS011;8112;53.592;10.184;2023-05-19T16:52:05;4.10;;;1.47;;
16015;SDS011;8112;53.592;10.184;2023-05-19T16:57:08;4.80;;;1.67;;
16015;SDS011;8112;53.592;10.184;2023-05-19T17:02:10;4.40;;;1.67;;
16015;SDS011;8112;53.592;10.184;2023-05-19T17:07:11;2.60;;;1.10;;
16015;SDS011;8112;53.592;10.184;2023-05-19T17:12:16;6.17;;;1.37;;
16015;SDS011;8112;53.592;10.184;2023-05-19T17:17:17;3.50;;;1.40;;
16015;SDS011;8112;53.592;10.184;2023-05-19T17:22:19;4.60;;;1.60;;
16015;SDS011;8112;53.592;10.184;2023-05-19T17:27:22;3.40;;;1.77;;
16015;SDS011;8112;53.592;10.184;2023-05-19T17:32:23;4.13;;;1.87;;
16015;SDS011;8112;53.592;10.184;2023-05-19T17:37:27;6.60;;;1.80;;
16015;SDS011;8112;53.592;10.184;2023-05-19T17:42:30;3.30;;;1.57;;
16015;SDS011;8112;53.592;10.184;2023-05-19T17:47:32;3.90;;;1.73;;
16015;SDS011;8112;53.592;10.184;2023-05-19T17:52:33;4.77;;;1.80;;
16015;SDS011;8112;53.592;10.184;2023-05-19T17:57:37;4.80;;;1.70;;
16015;SDS011;8112;53.592;10.184;2023-05-19T18:02:40;3.67;;;2.03;;
16015;SDS011;8112;53.592;10.184;2023-05-19T18:07:42;3.57;;;1.87;;
16015;SDS011;8112;53.592;10.184;2023-05-19T18:12:46;2.60;;;1.60;;
16015;SDS011;8112;53.592;10.184;2023-05-19T18:17:47;5.27;;;1.57;;
16015;SDS011;8112;53.592;10.184;2023-05-19T18:22:49;5.43;;;1.53;;
16015;SDS011;8112;53.592;10.184;2023-05-19T18:27:52;3.33;;;1.37;;
16015;SDS011;8112;53.592;10.184;2023-05-19T18:32:55;2.30;;;1.20;;
16015;SDS011;8112;53.592;10.184;2023-05-19T18:37:56;2.80;;;1.37;;
16015;SDS011;8112;53.592;10.184;2023-05-19T18:42:59;3.90;;;1.30;;
16015;SDS011;8112;53.592;10.184;2023-05-19T18:48:01;4.97;;;1.43;;
16015;SDS011;8112;53.592;10.184;2023-05-19T18:53:03;4.20;;;1.50;;
16015;SDS011;8112;53.592;10.184;2023-05-19T18:58:06;1.70;;;1.20;;
16015;SDS011;8112;53.592;10.184;2023-05-19T19:03:08;1.97;;;1.03;;
16015;SDS011;8112;53.592;10.184;2023-05-19T19:08:10;3.57;;;1.60;;
16015;SDS011;8112;53.592;10.184;2023-05-19T19:13:13;3.27;;;1.40;;
16015;SDS011;8112;53.592;10.184;2023-05-19T19:18:15;1.97;;;1.50;;
16015;SDS011;8112;53.592;10.184;2023-05-19T19:23:17;3.47;;;1.27;;
16015;SDS011;8112;53.592;10.184;2023-05-19T19:28:20;1.60;;;1.20;;
16015;SDS011;8112;53.592;10.184;2023-05-19T19:33:22;2.40;;;1.20;;
16015;SDS011;8112;53.592;10.184;2023-05-19T19:38:23;7.60;;;1.90;;
16015;SDS011;8112;53.592;10.184;2023-05-19T19:43:26;7.63;;;1.60;;
16015;SDS011;8112;53.592;10.184;2023-05-19T19:48:28;2.33;;;1.77;;
16015;SDS011;8112;53.592;10.184;2023-05-19T19:53:30;4.27;;;1.30;;
16015;SDS011;8112;53.592;10.184;2023-05-19T19:58:33;6.83;;;1.87;;
16015;SDS011;8112;53.592;10.184;2023-05-19T20:03:35;5.40;;;1.70;;
16015;SDS011;8112;53.592;10.184;2023-05-19T20:08:37;3.13;;;1.60;;
16015;SDS011;8112;53.592;10.184;2023-05-19T20:13:40;6.07;;;1.80;;
16015;SDS011;8112;53.592;10.184;2023-05-19T20:18:41;5.03;;;1.87;;
16015;SDS011;8112;53.592;10.184;2023-05-19T20:23:43;3.87;;;2.07;;
16015;SDS011;8112;53.592;10.184;2023-05-19T20:28:46;3.77;;;1.50;;
16015;SDS011;8112;53.592;10.184;2023-05-19T20:33:48;2.83;;;1.67;;
16015;SDS011;8112;53.592;10.184;2023-05-19T20:38:50;2.63;;;1.60;;
16015;SDS011;8112;53.592;10.184;2023-05-19T20:43:53;5.33;;;2.00;;
16015;SDS011;8112;53.592;10.184;2023-05-19T20:48:56;2.93;;;1.63;;
16015;SDS011;8112;53.592;10.184;2023-05-19T20:53:58;2.23;;;1.67;;
16015;SDS011;8112;53.592;10.184;2023-05-19T20:59:01;5.03;;;1.50;;
16015;SDS011;8112;53.592;10.184;2023-05-19T21:04:03;3.53;;;1.77;;
16015;SDS011;8112;53.592;10.184;2023-05-19T21:09:06;2.50;;;1.40;;
16015;SDS011;8112;53.592;10.184;2023-05-19T21:14:10;2.90;;;1.50;;
16015;SDS011;8112;53.592;10.184;2023-05-19T21:19:12;1.47;;;1.20;;
16015;SDS011;8112;53.592;10.184;2023-05-19T21:24:14;3.03;;;1.50;;
16015;SDS011;8112;53.592;10.184;2023-05-19T21:29:17;1.93;;;1.40;;
16015;SDS011;8112;53.592;10.184;2023-05-19T21:34:19;2.30;;;1.50;;
16015;SDS011;8112;53.592;10.184;2023-05-19T21:39:21;2.30;;;1.30;;
16015;SDS011;8112;53.592;10.184;2023-05-19T21:44:24;2.23;;;1.40;;
16015;SDS011;8112;53.592;10.184;2023-05-19T21:49:25;2.27;;;1.10;;
16015;SDS011;8112;53.592;10.184;2023-05-19T21:54:27;2.43;;;1.20;;
16015;SDS011;8112;53.592;10.184;2023-05-19T21:59:30;1.37;;;1.10;;
16015;SDS011;8112;53.592;10.184;2023-05-19T22:04:32;3.50;;;1.50;;
16015;SDS011;8112;53.592;10.184;2023-05-19T22:09:34;2.30;;;1.10;;
16015;SDS011;8112;53.592;10.184;2023-05-19T22:14:37;1.50;;;1.20;;
16015;SDS011;8112;53.592;10.184;2023-05-19T22:19:39;2.10;;;1.23;;
16015;SDS011;8112;53.592;10.184;2023-05-19T22:24:40;1.40;;;1.10;;
16015;SDS011;8112;53.592;10.184;2023-05-19T22:29:43;2.30;;;1.20;;
16015;SDS011;8112;53.592;10.184;2023-05-19T22:34:45;1.23;;;1.13;;
16015;SDS011;8112;53.592;10.184;2023-05-19T22:39:47;2.23;;;1.20;;
16015;SDS011;8112;53.592;10.184;2023-05-19T22:44:50;2.93;;;1.30;;
16015;SDS011;8112;53.592;10.184;2023-05-19T22:49:51;3.63;;;1.23;;
16015;SDS011;8112;53.592;10.184;2023-05-19T22:54:53;2.70;;;1.00;;
16015;SDS011;8112;53.592;10.184;2023-05-19T22:59:56;0.93;;;0.93;;
16015;SDS011;8112;53.592;10.184;2023-05-19T23:04:58;1.10;;;1.00;;
16015;SDS011;8112;53.592;10.184;2023-05-19T23:09:59;2.00;;;1.33;;
16015;SDS011;8112;53.592;10.184;2023-05-19T23:15:04;2.03;;;1.17;;
16015;SDS011;8112;53.592;10.184;2023-05-19T23:20:06;1.60;;;1.30;;
16015;SDS011;8112;53.592;10.184;2023-05-19T23:25:09;1.27;;;1.03;;
16015;SDS011;8112;53.592;10.184;2023-05-19T23:30:12;2.80;;;1.40;;
16015;SDS011;8112;53.592;10.184;2023-05-19T23:35:14;2.03;;;1.20;;
16015;SDS011;8112;53.592;10.184;2023-05-19T23:40:16;1.87;;;1.30;;
16015;SDS011;8112;53.592;10.184;2023-05-19T23:45:20;1.73;;;1.33;;
16015;SDS011;8112;53.592;10.184;2023-05-19T23:50:21;2.73;;;1.00;;
16015;SDS011;8112;53.592;10.184;2023-05-19T23:55:23;3.70;;;1.20;;
